Time;durP1;ratioP1;P1;durP2;ratioP2;P2;SDS_P1;SDS_P2;PMS_P1;PMS_P2;Temp;Humidity;BMP_temperature;BMP_pressure;BME280_temperature;BME280_humidity;BME280_pressure;Samples;Min_cycle;Max_cycle;Signal;HPM_P1;HPM_P2
2022/02/28 00:00:39;;;;;;;16.50;15.60;;;2.20;7.30;;;;;;4994513;28;20171;-74
2022/02/28 00:03:05;;;;;;;16.77;15.68;;;2.20;7.90;;;;;;4993916;28;20176;-74
2022/02/28 00:05:31;;;;;;;17.20;16.13;;;2.20;7.80;;;;;;4994479;28;20206;-73
2022/02/28 00:07:56;;;;;;;17.25;16.30;;;2.20;7.50;;;;;;4994108;28;20180;-75
2022/02/28 00:10:23;;;;;;;17.40;16.40;;;2.00;7.80;;;;;;4994416;28;20226;-75
2022/02/28 00:12:49;;;;;;;17.65;15.88;;;1.90;8.00;;;;;;4994067;28;20203;-75
2022/02/28 00:15:17;;;;;;;15.80;14.90;;;2.00;8.30;;;;;;4994349;28;20837;-75
2022/02/28 00:17:43;;;;;;;17.58;16.20;;;2.10;8.10;;;;;;4994027;28;20184;-75
2022/02/28 00:20:12;;;;;;;16.30;15.32;;;2.10;8.00;;;;;;4994248;28;20169;-75
2022/02/28 00:22:38;;;;;;;17.13;15.88;;;2.20;7.90;;;;;;4994287;28;20516;-75
2022/02/28 00:25:06;;;;;;;19.50;17.95;;;2.10;8.20;;;;;;4994032;28;20290;-75
2022/02/28 00:27:32;;;;;;;18.15;16.80;;;2.10;8.60;;;;;;4991261;28;20640;-74
2022/02/28 00:29:58;;;;;;;17.58;16.38;;;2.00;8.30;;;;;;4974839;28;20193;-73
2022/02/28 00:32:24;;;;;;;18.07;16.90;;;2.00;8.40;;;;;;4974594;28;20213;-74
2022/02/28 00:34:51;;;;;;;17.90;16.90;;;2.20;8.10;;;;;;4974233;28;20201;-74
2022/02/28 00:37:18;;;;;;;17.85;16.75;;;2.20;8.00;;;;;;4974254;28;20184;-74
2022/02/28 00:39:43;;;;;;;19.50;17.80;;;2.20;8.10;;;;;;4974409;28;20228;-74
2022/02/28 00:42:10;;;;;;;17.80;16.70;;;2.20;8.60;;;;;;4974352;28;20244;-74
2022/02/28 00:44:36;;;;;;;18.75;17.50;;;2.10;8.50;;;;;;4974027;28;20187;-73
2022/02/28 00:47:03;;;;;;;17.40;16.10;;;2.20;8.40;;;;;;4974023;28;20264;-74
2022/02/28 00:49:29;;;;;;;18.15;16.98;;;2.30;8.20;;;;;;4974302;28;20177;-74
2022/02/28 00:51:54;;;;;;;17.53;15.93;;;2.30;8.20;;;;;;4974163;28;20527;-74
2022/02/28 00:54:20;;;;;;;18.50;17.27;;;2.40;8.10;;;;;;4973900;28;20177;-74
2022/02/28 00:56:45;;;;;;;18.37;16.97;;;2.40;8.00;;;;;;4973910;28;20169;-74
2022/02/28 00:59:11;;;;;;;18.53;17.33;;;2.50;7.80;;;;;;4973989;28;20173;-74
2022/02/28 01:01:37;;;;;;;18.73;17.37;;;2.50;7.70;;;;;;4974139;28;20595;-74
2022/02/28 01:04:05;;;;;;;18.17;16.97;;;2.50;8.10;;;;;;4974828;28;20203;-74
2022/02/28 01:06:31;;;;;;;16.92;15.90;;;2.40;8.30;;;;;;4973700;28;20200;-75
2022/02/28 01:08:57;;;;;;;17.92;16.50;;;2.40;8.20;;;;;;4974180;28;20576;-74
2022/02/28 01:11:22;;;;;;;18.63;17.17;;;2.30;8.50;;;;;;4973875;28;20207;-74
2022/02/28 01:13:48;;;;;;;18.80;17.50;;;2.20;8.60;;;;;;4972804;28;20629;-74
2022/02/28 01:16:14;;;;;;;16.50;15.40;;;2.20;8.60;;;;;;4974110;28;20208;-74
2022/02/28 01:18:40;;;;;;;17.40;16.40;;;2.30;8.10;;;;;;4973844;28;20661;-74
2022/02/28 01:21:05;;;;;;;18.73;17.53;;;2.30;7.60;;;;;;4973742;28;20416;-74
2022/02/28 01:23:31;;;;;;;18.90;17.27;;;2.40;7.20;;;;;;4973521;28;20185;-73
2022/02/28 01:25:56;;;;;;;17.27;16.27;;;2.30;7.20;;;;;;4973579;28;20263;-74
2022/02/28 01:28:22;;;;;;;19.57;18.27;;;2.40;7.30;;;;;;4973618;28;20185;-75
2022/02/28 01:30:48;;;;;;;18.73;17.17;;;2.40;7.30;;;;;;4973644;28;20530;-74
2022/02/28 01:33:13;;;;;;;18.57;17.43;;;2.40;7.10;;;;;;4973500;28;20224;-73
2022/02/28 01:35:39;;;;;;;18.17;16.77;;;2.40;7.20;;;;;;4974043;28;20227;-74
2022/02/28 01:38:06;;;;;;;18.10;16.67;;;2.40;7.20;;;;;;4973040;28;20256;-73
2022/02/28 01:40:32;;;;;;;17.17;15.98;;;2.30;7.00;;;;;;4988588;28;20174;-73
2022/02/28 01:42:58;;;;;;;18.55;17.35;;;2.30;7.10;;;;;;4973051;28;20270;-73
2022/02/28 01:45:24;;;;;;;17.13;16.13;;;2.40;7.10;;;;;;4973337;28;20295;-74
2022/02/28 01:47:55;;;;;;;17.13;16.02;;;2.30;7.30;;;;;;4973135;28;20755;-73
2022/02/28 01:50:21;;;;;;;19.38;17.77;;;2.30;7.60;;;;;;4973351;28;20643;-74
2022/02/28 01:52:48;;;;;;;19.98;18.58;;;2.20;8.10;;;;;;4972637;28;20209;-73
2022/02/28 01:55:15;;;;;;;18.25;17.02;;;2.10;8.10;;;;;;4973107;28;20269;-73
2022/02/28 01:57:41;;;;;;;17.48;16.38;;;2.10;8.10;;;;;;4972792;28;20170;-74
2022/02/28 02:00:09;;;;;;;18.85;17.60;;;1.90;8.40;;;;;;4973189;28;20669;-75
2022/02/28 02:02:35;;;;;;;17.80;16.50;;;1.70;8.90;;;;;;4972986;28;20235;-75
2022/02/28 02:05:00;;;;;;;17.37;16.17;;;1.70;9.20;;;;;;4973401;28;20200;-75
2022/02/28 02:07:26;;;;;;;17.37;16.07;;;1.60;9.30;;;;;;4972952;28;20195;-75
2022/02/28 02:09:52;;;;;;;18.13;16.55;;;1.70;9.40;;;;;;4973156;28;20210;-75
2022/02/28 02:12:19;;;;;;;16.50;15.60;;;1.60;9.40;;;;;;4973001;28;20724;-74
2022/02/28 02:14:45;;;;;;;17.40;16.00;;;1.40;9.30;;;;;;4972728;28;20435;-75
2022/02/28 02:17:10;;;;;;;17.15;15.88;;;1.40;9.30;;;;;;4972756;28;20177;-75
2022/02/28 02:19:37;;;;;;;17.23;16.10;;;1.30;9.90;;;;;;4973065;28;20182;-74
2022/02/28 02:22:06;;;;;;;16.92;15.93;;;1.10;10.00;;;;;;4972989;28;20184;-74
2022/02/28 02:24:32;;;;;;;19.33;18.13;;;1.00;11.00;;;;;;4973428;28;20181;-74
2022/02/28 02:26:58;;;;;;;16.13;15.17;;;1.00;10.20;;;;;;4976545;28;20183;-74
2022/02/28 02:29:23;;;;;;;17.37;16.10;;;0.90;11.30;;;;;;4976976;28;20649;-74
2022/02/28 02:31:49;;;;;;;17.80;16.27;;;0.90;11.30;;;;;;4976791;28;20193;-74
2022/02/28 02:34:14;;;;;;;17.40;16.17;;;0.80;11.40;;;;;;4976580;28;20185;-73
2022/02/28 02:36:41;;;;;;;17.17;16.07;;;0.80;11.90;;;;;;4976430;28;20206;-74
2022/02/28 02:39:08;;;;;;;17.70;16.65;;;0.80;11.80;;;;;;4976594;28;20175;-74
2022/02/28 02:41:33;;;;;;;17.20;15.68;;;0.70;11.70;;;;;;4976584;28;20267;-74
2022/02/28 02:43:59;;;;;;;17.93;16.67;;;0.60;11.70;;;;;;4976450;28;20207;-74
2022/02/28 02:46:25;;;;;;;17.90;16.57;;;0.60;12.00;;;;;;4975152;28;20250;-74
2022/02/28 02:48:50;;;;;;;17.87;16.57;;;0.70;12.10;;;;;;4991498;28;20181;-73
2022/02/28 02:51:17;;;;;;;16.77;15.73;;;0.60;12.50;;;;;;4991328;28;20645;-74
2022/02/28 02:53:43;;;;;;;19.23;17.88;;;0.50;13.00;;;;;;4976505;28;20620;-74
2022/02/28 02:56:09;;;;;;;16.40;15.50;;;0.50;12.70;;;;;;5003318;23;20255;-72
2022/02/28 02:58:35;;;;;;;17.30;16.10;;;0.50;12.50;;;;;;4957459;28;20206;-72
2022/02/28 03:01:00;;;;;;;17.63;16.30;;;0.50;12.60;;;;;;4957650;28;20187;-72
2022/02/28 03:03:26;;;;;;;19.00;17.20;;;0.30;12.90;;;;;;4958621;28;20670;-72
2022/02/28 03:05:52;;;;;;;17.90;16.60;;;0.30;12.90;;;;;;4965157;28;20428;-71
2022/02/28 03:08:18;;;;;;;16.70;15.52;;;0.20;13.70;;;;;;4976786;28;20177;-72
2022/02/28 03:10:44;;;;;;;16.53;15.23;;;0.30;12.90;;;;;;4976628;28;20277;-72
2022/02/28 03:13:10;;;;;;;17.00;15.82;;;0.40;13.10;;;;;;4976622;28;20579;-72
2022/02/28 03:15:35;;;;;;;18.20;16.80;;;0.40;13.00;;;;;;4976917;28;20195;-72
2022/02/28 03:18:01;;;;;;;17.47;16.13;;;0.30;13.70;;;;;;4975267;28;20415;-72
2022/02/28 03:20:27;;;;;;;16.87;15.47;;;0.30;13.40;;;;;;4976621;28;20231;-72
2022/02/28 03:22:52;;;;;;;15.70;14.73;;;0.30;12.90;;;;;;4974168;28;20197;-71
2022/02/28 03:25:18;;;;;;;17.23;16.00;;;0.20;13.60;;;;;;4976503;28;20863;-70
2022/02/28 03:27:44;;;;;;;16.57;15.37;;;0.10;13.80;;;;;;4973229;28;20678;-71
2022/02/28 03:30:10;;;;;;;17.40;16.03;;;0.00;14.20;;;;;;4964233;28;20429;-72
2022/02/28 03:32:36;;;;;;;16.63;15.10;;;-0.10;14.30;;;;;;4967315;28;20685;-71
2022/02/28 03:35:03;;;;;;;15.60;14.50;;;-0.10;14.50;;;;;;4967255;28;20265;-71
2022/02/28 03:37:29;;;;;;;18.15;16.42;;;0.00;14.60;;;;;;4974452;28;20217;-71
2022/02/28 03:39:55;;;;;;;17.87;16.40;;;-0.10;14.90;;;;;;4974587;28;20186;-72
2022/02/28 03:42:20;;;;;;;16.00;14.77;;;-0.10;15.10;;;;;;4974887;28;20767;-72
2022/02/28 03:44:46;;;;;;;16.67;15.57;;;-0.30;15.10;;;;;;4990576;28;20219;-72
2022/02/28 03:47:12;;;;;;;17.20;15.70;;;-0.20;15.50;;;;;;4990454;28;20206;-72
2022/02/28 03:49:38;;;;;;;15.23;14.03;;;-0.30;15.00;;;;;;4976201;28;20213;-72
2022/02/28 03:52:04;;;;;;;15.93;14.80;;;-0.30;15.40;;;;;;4975693;28;20701;-72
2022/02/28 03:54:30;;;;;;;18.77;17.15;;;-0.40;15.90;;;;;;4975319;28;20188;-72
2022/02/28 03:56:56;;;;;;;17.13;15.40;;;-0.40;15.90;;;;;;4975279;28;20698;-72
2022/02/28 03:59:21;;;;;;;15.93;14.73;;;-0.50;16.00;;;;;;4991633;28;20640;-73
2022/02/28 04:01:47;;;;;;;15.57;14.43;;;-0.50;16.60;;;;;;4975670;28;20177;-73
2022/02/28 04:04:12;;;;;;;17.30;16.10;;;-0.50;16.20;;;;;;4990122;28;20173;-73
2022/02/28 04:06:38;;;;;;;17.13;15.93;;;-0.50;16.30;;;;;;4974969;28;20206;-71
2022/02/28 04:09:05;;;;;;;17.93;16.43;;;-0.50;16.20;;;;;;4975173;28;20177;-71
2022/02/28 04:11:33;;;;;;;15.85;14.68;;;-0.70;16.50;;;;;;4975478;28;20566;-72
2022/02/28 04:13:59;;;;;;;16.05;14.95;;;-0.80;16.50;;;;;;4975059;28;20207;-72
2022/02/28 04:16:24;;;;;;;16.50;14.87;;;-0.70;16.50;;;;;;4974860;28;20287;-71
2022/02/28 04:18:50;;;;;;;17.83;16.13;;;-0.70;16.50;;;;;;4975108;28;20417;-72
2022/02/28 04:21:15;;;;;;;16.87;15.40;;;-0.80;17.20;;;;;;4973613;28;20180;-71
2022/02/28 04:23:41;;;;;;;16.27;14.90;;;-0.90;17.50;;;;;;4974629;28;20196;-71
2022/02/28 04:26:07;;;;;;;16.07;14.57;;;-0.80;17.70;;;;;;4989634;28;20247;-71
2022/02/28 04:28:32;;;;;;;16.40;15.27;;;-0.70;17.00;;;;;;4973282;28;20647;-71
2022/02/28 04:30:58;;;;;;;16.93;15.63;;;-0.80;17.50;;;;;;4974738;28;20177;-71
2022/02/28 04:33:23;;;;;;;18.33;16.60;;;-0.90;17.60;;;;;;4989400;28;20220;-71
2022/02/28 04:35:49;;;;;;;18.07;16.60;;;-0.90;17.80;;;;;;4974559;28;20201;-72
2022/02/28 04:38:14;;;;;;;16.67;15.57;;;-0.90;17.80;;;;;;4974308;28;20180;-71
2022/02/28 04:40:40;;;;;;;17.40;16.00;;;-0.90;18.10;;;;;;4973405;28;20196;-71
2022/02/28 04:43:05;;;;;;;15.03;13.90;;;-1.00;18.10;;;;;;4974633;28;20212;-71
2022/02/28 04:45:31;;;;;;;17.73;16.43;;;-1.00;18.40;;;;;;4975805;28;20248;-71
2022/02/28 04:47:57;;;;;;;16.20;15.07;;;-0.90;18.30;;;;;;4974189;28;20177;-71
2022/02/28 04:50:22;;;;;;;17.90;15.10;;;-1.00;19.00;;;;;;4973108;28;20710;-71
2022/02/28 04:52:48;;;;;;;17.00;15.40;;;-0.90;18.60;;;;;;4972680;28;20301;-71
2022/02/28 04:55:14;;;;;;;15.97;14.70;;;-1.00;18.90;;;;;;4974189;28;20184;-71
2022/02/28 04:57:44;;;;;;;17.43;15.77;;;-1.00;18.70;;;;;;4989008;28;20729;-71
2022/02/28 05:00:12;;;;;;;16.58;15.18;;;-0.90;18.50;;;;;;4974172;28;20417;-71
2022/02/28 05:02:38;;;;;;;14.95;13.65;;;-1.00;19.00;;;;;;4972747;28;20177;-71
2022/02/28 05:05:04;;;;;;;17.10;15.63;;;-1.00;18.70;;;;;;4974022;28;20173;-71
2022/02/28 05:07:30;;;;;;;17.88;16.23;;;-1.00;18.90;;;;;;4973646;28;20188;-71
2022/02/28 05:09:56;;;;;;;16.50;15.10;;;-1.00;18.90;;;;;;4974098;28;20581;-71
2022/02/28 05:12:21;;;;;;;16.67;15.00;;;-1.10;19.10;;;;;;4974075;28;20654;-71
2022/02/28 05:14:47;;;;;;;17.10;15.60;;;-1.00;18.90;;;;;;4972663;28;20424;-70
2022/02/28 05:17:13;;;;;;;16.70;14.20;;;-1.10;18.90;;;;;;4973475;28;20594;-70
2022/02/28 05:19:39;;;;;;;17.63;16.00;;;-1.30;19.30;;;;;;4974040;28;20173;-71
2022/02/28 05:22:04;;;;;;;14.87;13.77;;;-1.40;19.80;;;;;;4973825;28;20567;-71
2022/02/28 05:24:34;;;;;;;17.90;16.40;;;-1.30;20.20;;;;;;4973819;28;20412;-71
2022/02/28 05:27:01;;;;;;;17.10;15.52;;;-1.40;20.20;;;;;;4973545;28;20515;-70
2022/02/28 05:29:27;;;;;;;14.55;13.35;;;-1.30;19.80;;;;;;4973634;28;20188;-70
2022/02/28 05:31:53;;;;;;;15.95;14.38;;;-1.40;19.80;;;;;;4973411;28;20170;-70
2022/02/28 05:34:19;;;;;;;16.77;14.73;;;-1.40;20.20;;;;;;4972226;28;20189;-72
2022/02/28 05:36:44;;;;;;;16.97;15.23;;;-1.40;20.20;;;;;;4973314;28;20272;-71
2022/02/28 05:39:10;;;;;;;18.40;16.60;;;-1.50;20.20;;;;;;4973507;28;20220;-71
2022/02/28 05:41:35;;;;;;;20.47;17.33;;;-1.50;20.30;;;;;;4974034;28;20174;-72
2022/02/28 05:44:01;;;;;;;15.40;14.10;;;-1.50;20.90;;;;;;4973213;28;20261;-73
2022/02/28 05:46:26;;;;;;;16.00;14.63;;;-1.60;20.80;;;;;;4971211;28;20236;-73
2022/02/28 05:48:52;;;;;;;17.90;16.40;;;-1.60;20.90;;;;;;4963861;28;20198;-72
2022/02/28 05:51:17;;;;;;;16.73;15.10;;;-1.50;20.90;;;;;;4963552;28;20709;-72
2022/02/28 05:53:43;;;;;;;15.53;14.43;;;-1.40;20.40;;;;;;4983570;28;20205;-72
2022/02/28 05:56:09;;;;;;;16.50;15.10;;;-1.50;20.10;;;;;;4965880;28;20701;-72
2022/02/28 05:58:34;;;;;;;16.53;15.23;;;-1.50;20.80;;;;;;4966294;28;20177;-72
2022/02/28 06:01:00;;;;;;;15.97;14.83;;;-1.50;20.70;;;;;;4987070;28;20632;-72
2022/02/28 06:03:25;;;;;;;16.87;15.57;;;-1.50;20.80;;;;;;4973026;28;20849;-73
2022/02/28 06:05:51;;;;;;;17.83;16.07;;;-1.50;20.60;;;;;;4973137;28;20566;-72
2022/02/28 06:08:17;;;;;;;16.53;14.83;;;-1.60;20.90;;;;;;4972972;28;20208;-72
2022/02/28 06:10:42;;;;;;;21.17;16.97;;;-1.70;21.50;;;;;;4971840;28;20188;-72
2022/02/28 06:13:08;;;;;;;21.00;16.47;;;-1.60;21.20;;;;;;4972974;28;20554;-73
2022/02/28 06:15:34;;;;;;;15.47;14.03;;;-1.60;21.30;;;;;;4973099;28;20193;-72
2022/02/28 06:18:00;;;;;;;18.10;16.17;;;-1.50;21.00;;;;;;4972805;28;20177;-73
2022/02/28 06:20:26;;;;;;;16.58;15.15;;;-1.50;20.70;;;;;;4972993;28;20220;-73
2022/02/28 06:22:52;;;;;;;18.65;16.92;;;-1.60;21.10;;;;;;4973499;28;20549;-72
2022/02/28 06:25:18;;;;;;;17.33;15.53;;;-1.70;21.70;;;;;;4972996;28;20205;-72
2022/02/28 06:27:43;;;;;;;16.27;14.77;;;-1.60;22.00;;;;;;4973448;28;20440;-72
2022/02/28 06:30:09;;;;;;;16.50;15.20;;;-1.60;22.50;;;;;;4973108;28;20269;-70
2022/02/28 06:32:36;;;;;;;16.77;15.38;;;-1.70;22.70;;;;;;4971805;28;20201;-68
2022/02/28 06:35:02;;;;;;;17.02;15.43;;;-1.70;22.90;;;;;;4973280;28;20180;-69
2022/02/28 06:37:28;;;;;;;15.50;14.10;;;-1.60;22.80;;;;;;4972825;28;20174;-68
2022/02/28 06:39:53;;;;;;;18.47;16.83;;;-1.60;22.80;;;;;;4973261;28;20221;-69
2022/02/28 06:42:19;;;;;;;16.20;14.80;;;-1.50;23.20;;;;;;4973682;28;20204;-69
2022/02/28 06:44:45;;;;;;;17.80;16.20;;;-1.60;23.10;;;;;;4973490;28;20199;-68
2022/02/28 06:47:10;;;;;;;19.37;17.43;;;-1.60;23.60;;;;;;4987295;28;20203;-69
2022/02/28 06:49:36;;;;;;;20.00;15.33;;;-1.60;24.10;;;;;;4972793;28;20674;-69
2022/02/28 06:52:01;;;;;;;19.73;15.57;;;-1.40;24.30;;;;;;4972710;28;20178;-69
2022/02/28 06:54:27;;;;;;;21.43;17.27;;;-1.20;23.50;;;;;;4972561;28;20177;-69
2022/02/28 06:56:52;;;;;;;18.67;16.97;;;-1.00;23.60;;;;;;4972591;28;20232;-69
2022/02/28 06:59:18;;;;;;;18.83;16.73;;;-0.80;22.60;;;;;;4972745;28;20224;-69
2022/02/28 07:01:43;;;;;;;16.97;15.43;;;-0.80;22.30;;;;;;4972715;28;20178;-68
2022/02/28 07:04:11;;;;;;;18.53;16.67;;;-0.60;22.00;;;;;;4972861;28;20241;-69
2022/02/28 07:06:37;;;;;;;18.77;16.63;;;-0.50;21.70;;;;;;4972734;28;20190;-69
2022/02/28 07:09:05;;;;;;;19.23;17.70;;;-0.40;20.80;;;;;;4972944;28;20173;-69
2022/02/28 07:11:31;;;;;;;17.58;15.98;;;-0.30;20.90;;;;;;4988233;28;20515;-69
2022/02/28 07:13:56;;;;;;;16.87;15.57;;;-0.20;20.60;;;;;;4976204;28;20331;-69
2022/02/28 07:16:22;;;;;;;18.37;16.53;;;0.00;20.30;;;;;;4976312;28;20934;-68
2022/02/28 07:18:47;;;;;;;18.30;16.67;;;0.10;19.70;;;;;;4973903;28;20608;-68
2022/02/28 07:21:13;;;;;;;18.57;16.77;;;0.30;19.60;;;;;;4973560;28;20231;-71
2022/02/28 07:23:39;;;;;;;18.77;17.17;;;0.30;19.00;;;;;;4976024;28;20188;-69
2022/02/28 07:26:04;;;;;;;20.30;17.40;;;0.40;19.50;;;;;;4975830;28;20247;-70
2022/02/28 07:28:30;;;;;;;20.17;18.23;;;0.40;18.80;;;;;;4973681;28;20326;-70
2022/02/28 07:30:55;;;;;;;21.70;19.40;;;0.50;18.60;;;;;;4975288;28;20196;-70
2022/02/28 07:33:21;;;;;;;22.43;19.27;;;0.60;19.20;;;;;;4976024;28;20271;-70
2022/02/28 07:35:46;;;;;;;28.23;18.40;;;0.60;18.10;;;;;;4972080;28;20265;-70
2022/02/28 07:38:12;;;;;;;19.70;17.87;;;0.80;18.90;;;;;;4970705;28;20268;-70
2022/02/28 07:40:38;;;;;;;20.48;18.67;;;0.90;18.40;;;;;;4975409;28;20644;-70
2022/02/28 07:43:04;;;;;;;20.43;18.43;;;0.80;18.10;;;;;;4974117;28;20201;-70
2022/02/28 07:45:30;;;;;;;20.30;18.50;;;0.80;17.50;;;;;;4975399;28;20230;-70
2022/02/28 07:47:56;;;;;;;19.98;18.38;;;0.80;17.50;;;;;;4975131;28;20230;-71
2022/02/28 07:50:22;;;;;;;21.13;19.20;;;0.80;17.50;;;;;;4974135;28;20283;-70
2022/02/28 07:52:47;;;;;;;19.83;18.17;;;0.90;17.50;;;;;;4975008;28;20208;-70
2022/02/28 07:55:13;;;;;;;20.77;19.17;;;1.10;17.00;;;;;;4970342;28;20570;-70
2022/02/28 07:57:39;;;;;;;20.60;18.93;;;1.20;17.00;;;;;;4970186;28;20220;-70
2022/02/28 08:00:06;;;;;;;20.77;19.17;;;1.30;16.60;;;;;;4961828;28;20193;-70
2022/02/28 08:02:32;;;;;;;19.25;17.25;;;1.30;16.30;;;;;;4966649;28;20209;-70
2022/02/28 08:04:57;;;;;;;21.40;19.40;;;1.30;16.50;;;;;;4967161;28;20714;-70
2022/02/28 08:07:23;;;;;;;20.37;18.53;;;1.30;16.70;;;;;;4965398;28;20188;-70
2022/02/28 08:09:48;;;;;;;20.47;18.67;;;1.40;16.60;;;;;;4970514;28;20199;-69
2022/02/28 08:12:14;;;;;;;20.27;18.13;;;1.50;16.40;;;;;;4970347;28;20322;-70
2022/02/28 08:14:40;;;;;;;20.30;18.53;;;1.70;16.70;;;;;;4969111;28;20244;-70
2022/02/28 08:17:06;;;;;;;20.83;18.73;;;1.80;16.40;;;;;;4959174;28;20698;-68
2022/02/28 08:19:32;;;;;;;19.20;17.70;;;2.00;16.20;;;;;;4972716;28;20193;-70
2022/02/28 08:21:58;;;;;;;20.67;18.87;;;2.20;15.70;;;;;;4970442;28;20760;-69
2022/02/28 08:24:23;;;;;;;21.70;19.20;;;2.10;14.30;;;;;;4970514;28;20189;-69
2022/02/28 08:26:49;;;;;;;20.73;19.03;;;2.00;15.10;;;;;;4975424;28;20280;-69
2022/02/28 08:29:15;;;;;;;19.57;17.80;;;2.30;14.50;;;;;;4963633;28;20458;-68
2022/02/28 08:31:40;;;;;;;19.10;17.20;;;2.50;14.30;;;;;;4956543;28;20186;-69
2022/02/28 08:34:06;;;;;;;20.87;18.43;;;2.70;14.40;;;;;;4954678;28;20210;-69
2022/02/28 08:36:32;;;;;;;21.47;19.17;;;2.70;14.40;;;;;;4965538;28;20212;-68
2022/02/28 08:38:58;;;;;;;20.00;18.48;;;2.90;14.60;;;;;;4955195;29;20182;-69
2022/02/28 08:41:24;;;;;;;23.03;21.00;;;2.90;13.50;;;;;;4960398;28;20192;-69
2022/02/28 08:43:49;;;;;;;18.13;16.90;;;3.00;13.30;;;;;;4955629;28;20756;-69
2022/02/28 08:46:15;;;;;;;19.10;17.77;;;2.70;12.50;;;;;;4953831;28;20209;-68
2022/02/28 08:48:40;;;;;;;21.10;19.43;;;2.40;12.70;;;;;;4970335;28;20189;-68
2022/02/28 08:51:06;;;;;;;20.50;18.77;;;2.50;13.00;;;;;;4974870;28;20651;-69
2022/02/28 08:53:31;;;;;;;20.17;18.47;;;2.70;12.70;;;;;;4974661;28;20597;-69
2022/02/28 08:55:57;;;;;;;21.20;19.50;;;2.80;13.80;;;;;;4973603;28;20229;-69
2022/02/28 08:58:23;;;;;;;20.90;18.90;;;2.80;13.30;;;;;;4981757;28;20197;-69
2022/02/28 09:00:49;;;;;;;22.63;20.48;;;2.70;13.00;;;;;;4966893;28;20179;-68
2022/02/28 09:03:15;;;;;;;21.23;19.33;;;2.80;13.00;;;;;;4971491;28;20190;-68
2022/02/28 09:05:40;;;;;;;23.40;18.40;;;2.70;12.30;;;;;;4965718;28;20271;-68
2022/02/28 09:08:06;;;;;;;22.13;20.47;;;2.50;13.30;;;;;;4973800;28;20184;-68
2022/02/28 09:10:32;;;;;;;22.73;20.50;;;2.70;13.30;;;;;;4961179;28;20660;-69
2022/02/28 09:12:57;;;;;;;21.60;19.43;;;2.90;13.50;;;;;;4954274;28;20309;-69
2022/02/28 09:15:23;;;;;;;21.90;20.10;;;2.90;12.60;;;;;;4953467;29;20297;-68
2022/02/28 09:17:48;;;;;;;21.47;19.83;;;2.80;12.70;;;;;;4968142;28;20315;-68
2022/02/28 09:20:14;;;;;;;21.00;19.20;;;2.90;13.30;;;;;;4974341;28;20174;-69
2022/02/28 09:22:40;;;;;;;18.40;17.30;;;3.10;13.00;;;;;;4961156;28;20189;-69
2022/02/28 09:25:08;;;;;;;19.90;18.17;;;3.30;11.70;;;;;;4954727;28;20174;-68
2022/02/28 09:27:34;;;;;;;20.02;18.15;;;3.30;11.70;;;;;;4964382;28;20293;-67
2022/02/28 09:30:00;;;;;;;20.17;18.42;;;3.20;11.80;;;;;;4972379;28;20279;-69
2022/02/28 09:32:26;;;;;;;20.10;18.45;;;3.20;12.30;;;;;;4972127;28;20578;-69
2022/02/28 09:34:51;;;;;;;19.20;17.80;;;3.30;11.30;;;;;;4972929;28;20177;-68
2022/02/28 09:37:17;;;;;;;18.50;17.30;;;3.50;11.30;;;;;;4973604;28;20201;-68
2022/02/28 09:39:43;;;;;;;20.27;18.93;;;3.70;10.80;;;;;;4974450;28;20281;-68
2022/02/28 09:42:10;;;;;;;19.65;18.35;;;3.60;10.70;;;;;;4968536;28;20594;-68
2022/02/28 09:44:36;;;;;;;20.65;19.25;;;3.80;10.80;;;;;;4954484;28;20205;-68
2022/02/28 09:47:03;;;;;;;18.17;17.05;;;3.80;10.80;;;;;;4962265;28;20210;-69
2022/02/28 09:49:29;;;;;;;20.38;18.73;;;3.80;11.40;;;;;;4972565;28;20194;-69
2022/02/28 09:51:55;;;;;;;19.83;18.33;;;3.90;10.90;;;;;;4972234;28;20224;-68
2022/02/28 09:54:21;;;;;;;22.42;20.90;;;3.90;11.00;;;;;;4954297;28;20236;-69
2022/02/28 09:56:47;;;;;;;21.30;19.70;;;3.90;11.60;;;;;;4954089;28;20296;-68
2022/02/28 09:59:12;;;;;;;21.53;19.87;;;4.10;11.50;;;;;;4954475;28;20192;-69
2022/02/28 10:01:43;;;;;;;22.17;20.57;;;4.30;12.30;;;;;;4970112;28;20566;-68
2022/02/28 10:04:09;;;;;;;21.45;19.73;;;4.40;11.20;;;;;;4973335;28;20189;-68
2022/02/28 10:06:34;;;;;;;21.50;19.70;;;4.60;11.40;;;;;;4973353;28;20671;-68
2022/02/28 10:09:04;;;;;;;19.70;18.30;;;4.70;10.50;;;;;;4971690;28;20191;-68
2022/02/28 10:11:39;;;;;;;20.08;18.58;;;4.50;10.80;;;;;;4973322;28;20186;-68
2022/02/28 10:14:06;;;;;;;17.35;16.35;;;4.70;8.70;;;;;;4972853;28;20596;-68
2022/02/28 10:16:57;;;;;;;19.95;18.52;;;4.90;7.70;;;;;;4971618;28;20547;-69
2022/02/28 10:19:29;;;;;;;20.58;19.10;;;4.90;10.00;;;;;;4953911;28;20182;-69
2022/02/28 10:22:01;;;;;;;18.80;17.70;;;5.20;9.60;;;;;;4957938;28;20511;-70
2022/02/28 10:24:27;;;;;;;18.65;17.55;;;5.30;8.10;;;;;;4971613;28;20269;-71
2022/02/28 10:26:57;;;;;;;20.07;18.50;;;5.50;4.70;;;;;;4970636;28;20299;-69
2022/02/28 10:29:27;;;;;;;20.33;18.88;;;5.70;7.70;;;;;;4963383;28;20192;-68
2022/02/28 10:32:04;;;;;;;18.40;17.20;;;5.60;8.40;;;;;;4955695;28;20194;-69
2022/02/28 10:34:32;;;;;;;18.25;17.10;;;5.80;5.00;;;;;;4965550;28;20257;-71
2022/02/28 10:36:58;;;;;;;17.60;16.40;;;6.10;3.10;;;;;;4967543;28;20310;-69
2022/02/28 10:39:27;;;;;;;17.40;16.50;;;6.30;2.40;;;;;;4962529;28;20540;-69
2022/02/28 10:41:57;;;;;;;16.00;15.20;;;6.60;2.30;;;;;;4955219;28;20260;-69
2022/02/28 10:44:23;;;;;;;18.20;16.90;;;6.80;1.90;;;;;;4971864;28;20439;-70
2022/02/28 10:46:50;;;;;;;16.80;15.70;;;7.00;2.10;;;;;;4972974;28;20829;-70
2022/02/28 10:49:39;;;;;;;19.00;17.20;;;7.10;1.00;;;;;;4976595;28;20413;-70
2022/02/28 10:52:10;;;;;;;17.60;16.50;;;7.30;1.00;;;;;;4970682;28;20433;-70
2022/02/28 10:54:38;;;;;;;16.87;15.97;;;7.50;1.00;;;;;;4966313;28;20439;-70
2022/02/28 10:57:08;;;;;;;17.60;16.50;;;7.60;1.00;;;;;;4966952;28;20729;-69
2022/02/28 10:59:41;;;;;;;16.57;15.50;;;7.80;1.00;;;;;;4968055;28;20523;-69
2022/02/28 11:02:08;;;;;;;17.23;16.33;;;7.80;1.00;;;;;;4976443;28;20441;-69
2022/02/28 11:04:36;;;;;;;17.43;16.33;;;7.90;1.00;;;;;;4976169;28;20427;-69
2022/02/28 11:07:04;;;;;;;16.07;15.17;;;7.90;1.00;;;;;;4976195;28;20495;-70
2022/02/28 11:09:38;;;;;;;17.27;16.33;;;7.90;1.00;;;;;;4958959;28;20462;-69
2022/02/28 11:12:40;;;;;;;18.90;17.80;;;8.00;1.00;;;;;;4983446;28;20771;-68
2022/02/28 11:15:08;;;;;;;17.47;16.47;;;8.20;1.00;;;;;;4956764;28;20716;-69
2022/02/28 11:17:40;;;;;;;17.10;16.20;;;8.30;1.00;;;;;;4967822;28;20846;-70
2022/02/28 11:20:10;;;;;;;17.60;16.50;;;8.20;1.00;;;;;;4955962;28;20445;-68
2022/02/28 11:22:38;;;;;;;17.03;15.90;;;8.30;1.00;;;;;;4966178;28;20593;-69
2022/02/28 11:25:05;;;;;;;17.67;16.50;;;8.40;1.00;;;;;;4971207;28;20802;-68
2022/02/28 11:27:31;;;;;;;16.10;15.40;;;8.40;1.00;;;;;;4973712;28;20430;-69
2022/02/28 11:29:59;;;;;;;17.97;16.77;;;8.40;1.00;;;;;;4975367;28;20439;-70
2022/02/28 11:32:27;;;;;;;18.10;17.10;;;8.40;1.00;;;;;;4975919;28;20962;-69
2022/02/28 11:34:54;;;;;;;18.87;17.67;;;8.50;1.00;;;;;;4968362;28;20505;-69
2022/02/28 11:37:22;;;;;;;18.37;17.27;;;8.50;1.00;;;;;;4974639;28;20452;-70
2022/02/28 11:39:48;;;;;;;18.80;17.77;;;8.60;1.00;;;;;;4975112;28;20405;-69
2022/02/28 11:42:14;;;;;;;16.93;15.83;;;8.40;1.00;;;;;;4975523;28;20425;-70
2022/02/28 11:44:55;;;;;;;18.17;16.90;;;8.50;1.00;;;;;;4975396;28;20420;-68
2022/02/28 11:47:21;;;;;;;17.43;16.53;;;8.70;1.00;;;;;;4971595;28;20991;-70
2022/02/28 11:49:48;;;;;;;17.83;16.60;;;8.80;1.00;;;;;;4966262;28;20983;-69
2022/02/28 11:52:31;;;;;;;20.97;19.40;;;8.80;1.00;;;;;;4955875;28;20415;-69
2022/02/28 11:55:15;;;;;;;20.87;19.27;;;9.00;1.00;;;;;;4969521;28;20429;-69
2022/02/28 11:57:55;;;;;;;17.03;16.20;;;9.00;1.00;;;;;;4974109;28;20425;-69
2022/02/28 12:00:47;;;;;;;17.50;16.30;;;9.20;1.00;;;;;;4974012;28;20486;-69
2022/02/28 12:03:29;;;;;;;16.40;15.50;;;9.10;1.00;;;;;;4973390;28;20938;-69
2022/02/28 12:05:55;;;;;;;17.70;16.47;;;9.10;1.00;;;;;;4974480;28;21020;-69
2022/02/28 12:08:38;;;;;;;25.83;22.33;;;9.20;1.00;;;;;;4974841;28;20515;-69
2022/02/28 12:11:19;;;;;;;16.97;15.93;;;9.30;1.00;;;;;;4973666;28;20612;-69
2022/02/28 12:13:58;;;;;;;17.07;16.03;;;9.30;1.00;;;;;;4974282;28;20481;-70
2022/02/28 12:19:28;;;;;;;18.67;17.70;;;9.50;1.00;;;;;;4974942;28;20499;-70
2022/02/28 12:22:02;;;;;;;18.27;16.90;;;9.60;1.00;;;;;;4975251;28;20451;-69
2022/02/28 12:24:52;;;;;;;20.00;18.30;;;9.70;1.00;;;;;;4974564;28;20531;-68
2022/02/28 12:27:18;;;;;;;18.13;17.03;;;9.70;1.00;;;;;;4974319;28;20469;-71
2022/02/28 12:29:44;;;;;;;18.90;17.80;;;9.70;1.00;;;;;;4974524;28;20420;-69
2022/02/28 12:32:10;;;;;;;17.43;16.67;;;9.70;1.00;;;;;;4974891;28;20270;-69
2022/02/28 12:34:35;;;;;;;20.50;19.07;;;9.80;1.00;;;;;;4972963;28;20567;-70
2022/02/28 12:37:02;;;;;;;18.70;17.67;;;9.90;1.00;;;;;;4974052;28;20195;-70
2022/02/28 12:39:27;;;;;;;17.40;16.50;;;10.00;1.00;;;;;;4974367;28;20913;-69